Time;durP1;ratioP1;P1;durP2;ratioP2;P2;SDS_P1;SDS_P2;PMS_P1;PMS_P2;Temp;Humidity;BMP_temperature;BMP_pressure;BME280_temperature;BME280_humidity;BME280_pressure;Samples;Min_cycle;Max_cycle;Signal;HPM_P1;HPM_P2
2021/10/29 00:00:50;;;;;;;16.00;8.40;;;;;;;6.82;90.97;100676.80;115714;1192;61477;-78
2021/10/29 00:03:19;;;;;;;16.40;8.70;;;;;;;6.84;91.03;100677.65;115691;1192;75451;-78
2021/10/29 00:05:45;;;;;;;17.00;9.70;;;;;;;6.87;90.97;100676.18;115691;1192;72397;-79
2021/10/29 00:08:12;;;;;;;21.40;9.50;;;;;;;6.91;90.62;100674.45;115449;1192;73970;-77
2021/10/29 00:10:40;;;;;;;16.20;8.60;;;;;;;6.95;90.40;100673.09;114692;1192;61916;-78
2021/10/29 00:13:07;;;;;;;16.10;8.30;;;;;;;6.98;90.43;100679.48;115710;1192;60402;-77
2021/10/29 00:15:34;;;;;;;14.70;7.30;;;;;;;7.00;90.13;100684.70;115706;1192;75747;-77
2021/10/29 00:18:02;;;;;;;17.70;8.10;;;;;;;7.01;90.04;100687.11;115606;1192;71763;-79
2021/10/29 00:20:36;;;;;;;;;;;;;;;7.00;89.83;100687.34;115616;1192;71787;-79
2021/10/29 00:23:03;;;;;;;18.70;9.40;;;;;;;6.97;89.86;100688.17;115597;1192;59886;-79
2021/10/29 00:25:31;;;;;;;17.60;9.30;;;;;;;6.95;89.72;100691.02;115705;1192;61578;-79
2021/10/29 00:27:58;;;;;;;17.50;9.60;;;;;;;6.96;89.81;100687.77;115806;1192;75363;-79
2021/10/29 00:30:24;;;;;;;16.10;8.10;;;;;;;6.98;89.93;100684.97;115785;1192;70925;-77
2021/10/29 00:32:54;;;;;;;15.80;8.20;;;;;;;7.01;89.78;100688.86;115727;1192;73784;-77
2021/10/29 00:35:21;;;;;;;16.90;8.60;;;;;;;7.05;90.07;100692.48;115694;1192;59815;-77
2021/10/29 00:37:48;;;;;;;19.50;8.50;;;;;;;7.08;89.92;100694.47;115521;1192;61081;-78
2021/10/29 00:40:15;;;;;;;15.70;7.60;;;;;;;7.12;89.91;100697.45;114716;1192;76358;-79
2021/10/29 00:42:42;;;;;;;18.60;8.20;;;;;;;7.15;90.04;100695.36;115658;1192;73386;-78
2021/10/29 00:45:10;;;;;;;16.70;8.00;;;;;;;7.19;89.78;100694.41;115744;1192;72633;-78
2021/10/29 00:47:36;;;;;;;19.00;8.60;;;;;;;7.21;89.53;100693.38;115378;1192;61961;-79
2021/10/29 00:50:08;;;;;;;14.20;7.40;;;;;;;7.22;89.38;100693.38;115593;1192;59810;-78
2021/10/29 00:52:34;;;;;;;14.90;7.40;;;;;;;7.23;89.56;100694.36;115750;1191;75750;-78
2021/10/29 00:55:02;;;;;;;17.20;8.90;;;;;;;7.22;89.16;100686.21;115729;1192;59680;-78
2021/10/29 00:57:28;;;;;;;17.30;8.20;;;;;;;7.20;88.92;100678.90;115747;1192;72542;-78
2021/10/29 00:59:55;;;;;;;19.00;9.40;;;;;;;7.16;89.08;100681.34;115746;1192;61927;-78
2021/10/29 01:02:21;;;;;;;14.30;6.30;;;;;;;7.13;88.86;100677.63;115643;1191;59628;-78
2021/10/29 01:04:48;;;;;;;19.30;10.20;;;;;;;7.08;88.77;100676.56;115777;1191;75279;-78
2021/10/29 01:07:15;;;;;;;20.70;8.70;;;;;;;7.01;88.20;100674.61;115827;1192;59602;-78
2021/10/29 01:09:41;;;;;;;15.90;8.80;;;;;;;6.91;88.12;100670.61;115458;1192;72596;-78
2021/10/29 01:12:08;;;;;;;19.10;9.60;;;;;;;6.83;88.15;100661.42;114427;1192;62421;-78
2021/10/29 01:14:35;;;;;;;18.70;8.90;;;;;;;6.76;88.48;100657.01;115628;1192;59961;-78
2021/10/29 01:17:02;;;;;;;18.10;9.70;;;;;;;6.68;88.38;100653.21;115820;1192;75380;-78
2021/10/29 01:19:32;;;;;;;17.90;9.40;;;;;;;6.59;88.40;100656.27;115729;1192;71688;-78
2021/10/29 01:22:02;;;;;;;20.40;10.00;;;;;;;6.49;89.14;100659.27;115704;1192;75454;-78
2021/10/29 01:24:29;;;;;;;19.70;9.60;;;;;;;6.44;90.22;100651.30;115771;1192;62059;-78
2021/10/29 01:26:55;;;;;;;20.90;9.90;;;;;;;6.44;91.23;100645.31;115813;1192;60432;-78
2021/10/29 01:29:23;;;;;;;22.50;10.90;;;;;;;6.47;91.08;100641.90;115665;1192;75330;-78
2021/10/29 01:31:49;;;;;;;19.40;8.60;;;;;;;6.49;91.16;100638.14;115572;1192;72036;-78
2021/10/29 01:34:16;;;;;;;18.90;9.70;;;;;;;6.49;90.69;100638.15;115736;1191;72477;-78
2021/10/29 01:36:44;;;;;;;16.30;8.10;;;;;;;6.48;91.00;100638.63;115745;1192;61301;-79
2021/10/29 01:39:15;;;;;;;16.70;8.80;;;;;;;6.52;91.31;100636.69;115770;1192;60782;-78
2021/10/29 01:41:41;;;;;;;19.10;8.70;;;;;;;6.53;90.99;100635.15;115749;1192;75525;-78
2021/10/29 01:44:08;;;;;;;21.30;9.30;;;;;;;6.51;90.60;100626.06;115858;1192;72368;-79
2021/10/29 01:46:35;;;;;;;14.90;7.10;;;;;;;6.47;90.34;100628.17;115208;1192;73950;-78
2021/10/29 01:49:02;;;;;;;17.50;8.80;;;;;;;6.45;90.76;100624.89;115229;1192;61628;-78
2021/10/29 01:51:28;;;;;;;16.10;7.90;;;;;;;6.39;90.16;100627.42;115752;1192;60410;-77
2021/10/29 01:53:56;;;;;;;18.30;9.50;;;;;;;6.34;90.70;100626.35;115791;1192;75038;-78
2021/10/29 01:56:22;;;;;;;20.70;9.60;;;;;;;6.27;90.58;100622.77;115749;1192;71003;-78
2021/10/29 01:58:49;;;;;;;18.10;8.70;;;;;;;6.23;90.93;100623.35;115773;1192;73825;-78
2021/10/29 02:01:16;;;;;;;10.80;5.70;;;;;;;6.18;91.11;100626.10;115810;1192;61971;-78
2021/10/29 02:03:44;;;;;;;23.70;10.10;;;;;;;6.15;91.53;100621.68;115787;1192;59805;-78
2021/10/29 02:06:11;;;;;;;25.20;10.70;;;;;;;6.14;91.93;100621.38;115686;1192;76618;-77
2021/10/29 02:08:38;;;;;;;19.60;9.10;;;;;;;6.14;91.73;100614.91;115778;1192;71016;-77
2021/10/29 02:11:04;;;;;;;25.90;11.00;;;;;;;6.13;92.00;100615.66;115774;1192;59788;-77
2021/10/29 02:13:31;;;;;;;20.30;10.10;;;;;;;6.15;92.95;100614.83;115751;1192;59718;-78
2021/10/29 02:15:58;;;;;;;23.50;10.50;;;;;;;6.20;93.39;100615.02;115749;1192;60419;-78
2021/10/29 02:18:24;;;;;;;22.70;10.40;;;;;;;6.25;93.60;100613.32;115799;1192;74996;-78
2021/10/29 02:20:56;;;;;;;19.50;9.50;;;;;;;6.29;93.65;100611.65;115201;1192;71678;-78
2021/10/29 02:23:25;;;;;;;25.50;10.80;;;;;;;6.35;93.85;100610.73;115629;1192;73671;-78
2021/10/29 02:25:52;;;;;;;22.80;10.60;;;;;;;6.41;93.52;100607.20;115886;1192;61642;-78
2021/10/29 02:28:21;;;;;;;19.90;9.40;;;;;;;6.47;93.71;100609.95;115690;1192;60380;-78
2021/10/29 02:30:49;;;;;;;19.70;9.20;;;;;;;6.56;94.07;100612.23;115849;1192;76410;-78
2021/10/29 02:33:19;;;;;;;17.70;9.30;;;;;;;6.62;93.89;100618.98;115851;1191;72483;-78
2021/10/29 02:35:46;;;;;;;21.50;9.00;;;;;;;6.68;93.75;100615.77;115696;1192;72540;-79
2021/10/29 02:38:14;;;;;;;21.70;9.70;;;;;;;6.71;93.43;100606.89;115770;1192;61800;-79
2021/10/29 02:40:40;;;;;;;23.50;11.10;;;;;;;6.73;93.53;100608.79;115779;1192;60424;-78
2021/10/29 02:43:07;;;;;;;16.60;7.30;;;;;;;6.78;93.36;100610.98;115619;1192;75309;-79
2021/10/29 02:45:34;;;;;;;25.10;9.70;;;;;;;6.83;93.20;100611.00;115122;1192;72175;-79
2021/10/29 02:48:01;;;;;;;22.00;10.20;;;;;;;6.93;93.41;100616.17;115378;1192;74132;-79
2021/10/29 02:50:27;;;;;;;20.10;9.70;;;;;;;7.01;92.63;100611.63;115457;1192;62952;-79
2021/10/29 02:52:54;;;;;;;15.20;8.90;;;;;;;7.09;92.38;100610.83;115867;1184;59853;-79
2021/10/29 02:55:20;;;;;;;18.00;8.90;;;;;;;7.14;91.72;100607.56;115647;1192;60419;-79
2021/10/29 02:57:47;;;;;;;20.70;10.10;;;;;;;7.15;91.64;100606.21;115640;1192;69987;-79
2021/10/29 03:00:17;;;;;;;20.50;9.70;;;;;;;7.17;91.55;100604.56;115762;1192;59853;-79
2021/10/29 03:02:45;;;;;;;14.50;6.90;;;;;;;7.19;91.07;100607.92;115832;1192;61905;-79
2021/10/29 03:05:13;;;;;;;20.10;9.70;;;;;;;7.20;91.03;100606.05;115606;1192;59960;-79
2021/10/29 03:07:40;;;;;;;17.30;9.50;;;;;;;7.22;91.30;100609.86;115902;1192;76620;-80
2021/10/29 03:10:09;;;;;;;18.20;7.60;;;;;;;7.26;91.26;100604.38;115875;1192;71104;-80
2021/10/29 03:12:35;;;;;;;18.90;10.30;;;;;;;7.28;90.71;100598.74;115824;1192;73045;-80
2021/10/29 03:15:03;;;;;;;23.60;9.90;;;;;;;7.29;90.72;100601.20;115513;1192;59801;-80
2021/10/29 03:17:30;;;;;;;22.10;9.70;;;;;;;7.31;90.73;100602.42;115002;1192;61839;-78
2021/10/29 03:19:57;;;;;;;18.70;9.70;;;;;;;7.31;90.99;100602.78;115634;1192;76392;-77
2021/10/29 03:22:24;;;;;;;21.20;11.00;;;;;;;7.31;90.86;100602.59;115473;1193;71109;-78
2021/10/29 03:24:52;;;;;;;20.80;10.90;;;;;;;7.30;90.73;100602.15;115728;1192;73672;-78
2021/10/29 03:27:19;;;;;;;17.50;8.60;;;;;;;7.30;91.09;100603.47;115770;1192;60985;-78
2021/10/29 03:29:47;;;;;;;15.50;7.70;;;;;;;7.31;90.73;100600.88;115848;1192;60274;-77
2021/10/29 03:32:14;;;;;;;22.40;9.20;;;;;;;7.31;90.42;100600.12;115826;1192;75575;-77
2021/10/29 03:34:41;;;;;;;19.80;10.70;;;;;;;7.31;90.73;100600.31;115811;1192;72361;-77
2021/10/29 03:37:21;;;;;;;18.20;9.00;;;;;;;7.31;90.64;100602.92;115636;1192;59917;-77
2021/10/29 03:39:59;;;;;;;20.80;10.50;;;;;;;7.30;90.53;100597.80;115790;1192;61289;-77
2021/10/29 03:42:31;;;;;;;14.20;6.90;;;;;;;7.27;90.77;100595.30;115631;1192;60298;-78
2021/10/29 03:47:28;;;;;;;19.90;10.10;;;;;;;7.22;90.36;100598.84;115625;1192;61657;-77
2021/10/29 03:50:12;;;;;;;22.20;9.60;;;;;;;7.18;90.55;100594.76;115752;1192;72631;-77
2021/10/29 03:52:48;;;;;;;21.10;9.40;;;;;;;7.16;90.63;100596.79;115779;1192;61966;-78
2021/10/29 03:55:14;;;;;;;19.00;8.30;;;;;;;7.11;90.44;100586.92;115854;1192;60543;-78
2021/10/29 03:57:41;;;;;;;20.40;9.30;;;;;;;7.06;90.39;100593.55;115817;1192;60007;-78
2021/10/29 04:00:08;;;;;;;12.30;7.30;;;;;;;7.02;90.12;100595.58;115895;1192;59835;-78
2021/10/29 04:02:34;;;;;;;17.90;8.60;;;;;;;6.92;89.80;100590.53;115802;1192;73572;-77
2021/10/29 04:05:01;;;;;;;14.00;7.60;;;;;;;6.82;89.75;100588.00;115678;1192;61052;-78
2021/10/29 04:07:28;;;;;;;11.70;6.50;;;;;;;6.71;89.44;100587.89;115859;1192;59762;-78
2021/10/29 04:09:54;;;;;;;20.30;9.60;;;;;;;6.60;89.65;100584.48;115742;1192;61319;-77
2021/10/29 04:12:21;;;;;;;19.00;8.60;;;;;;;6.49;89.55;100580.19;115233;1192;61756;-77
2021/10/29 04:14:49;;;;;;;18.20;8.90;;;;;;;6.40;89.72;100577.05;115680;1192;72855;-77
2021/10/29 04:17:16;;;;;;;17.40;8.40;;;;;;;6.31;89.62;100578.08;115750;1192;62337;-78
2021/10/29 04:19:43;;;;;;;17.60;8.50;;;;;;;6.23;89.99;100578.08;115733;1192;59632;-78
2021/10/29 04:22:10;;;;;;;15.20;7.10;;;;;;;6.14;90.10;100578.02;115709;1192;75499;-77
2021/10/29 04:24:37;;;;;;;19.00;9.00;;;;;;;6.07;90.39;100579.05;115869;1192;59758;-77
2021/10/29 04:27:05;;;;;;;17.70;9.00;;;;;;;6.00;90.69;100577.42;115741;1192;72594;-77
2021/10/29 04:29:37;;;;;;;18.40;8.40;;;;;;;5.94;90.86;100574.49;115784;1192;62880;-77
2021/10/29 04:32:04;;;;;;;15.60;8.20;;;;;;;5.88;91.02;100574.80;115852;1192;60057;-77
2021/10/29 04:34:32;;;;;;;15.00;7.20;;;;;;;5.82;91.65;100569.80;115807;1192;75659;-77
2021/10/29 04:36:59;;;;;;;18.90;9.10;;;;;;;5.77;92.08;100570.48;115753;1192;59598;-77
2021/10/29 04:39:27;;;;;;;15.50;7.40;;;;;;;5.72;92.02;100560.77;115771;1192;73861;-77
2021/10/29 04:41:53;;;;;;;18.80;9.20;;;;;;;5.68;92.48;100563.58;115258;1185;63093;-78
2021/10/29 04:44:23;;;;;;;19.70;8.80;;;;;;;5.64;92.65;100560.78;115470;1192;61056;-78
2021/10/29 04:46:51;;;;;;;20.20;9.90;;;;;;;5.62;93.01;100554.23;115684;1192;76774;-78
2021/10/29 04:49:17;;;;;;;22.20;9.30;;;;;;;5.59;93.02;100550.65;115868;1192;71209;-78
2021/10/29 04:51:44;;;;;;;22.00;9.60;;;;;;;5.55;93.34;100546.39;115847;1192;73223;-78
2021/10/29 04:54:10;;;;;;;13.50;6.20;;;;;;;5.53;93.94;100544.85;115801;1192;61942;-78
2021/10/29 04:56:37;;;;;;;15.20;7.70;;;;;;;5.52;94.18;100548.98;115807;1192;59834;-78
2021/10/29 04:59:04;;;;;;;10.00;4.90;;;;;;;5.52;94.39;100550.63;115898;1192;59783;-78
2021/10/29 05:01:31;;;;;;;21.50;7.90;;;;;;;5.53;95.32;100547.02;115816;1192;71737;-78
2021/10/29 05:03:58;;;;;;;16.20;8.90;;;;;;;5.54;95.06;100549.99;115922;1192;72496;-78
2021/10/29 05:06:24;;;;;;;23.50;10.10;;;;;;;5.56;95.08;100549.22;115623;1191;62162;-78
2021/10/29 05:08:51;;;;;;;14.30;6.50;;;;;;;5.56;95.07;100542.88;114679;1192;60591;-77
2021/10/29 05:11:21;;;;;;;20.10;10.30;;;;;;;5.57;95.63;100546.08;115203;1192;76461;-78
2021/10/29 05:13:47;;;;;;;22.80;10.20;;;;;;;5.58;95.77;100546.72;115575;1192;72053;-77
2021/10/29 05:16:13;;;;;;;21.80;9.30;;;;;;;5.57;95.76;100544.64;115680;1192;73123;-77
2021/10/29 05:18:40;;;;;;;16.20;7.40;;;;;;;5.59;95.95;100552.95;115736;1192;62064;-77
2021/10/29 05:21:07;;;;;;;23.50;11.30;;;;;;;5.60;96.00;100542.50;115867;1192;60955;-78
2021/10/29 05:23:34;;;;;;;13.00;6.30;;;;;;;5.60;96.29;100539.78;115845;1192;59993;-78
2021/10/29 05:26:00;;;;;;;16.60;7.30;;;;;;;5.62;96.86;100539.11;115872;1192;71304;-77
2021/10/29 05:28:27;;;;;;;21.70;9.50;;;;;;;5.64;97.30;100538.70;115931;1192;72650;-77
2021/10/29 05:30:54;;;;;;;18.90;9.20;;;;;;;5.67;97.34;100537.86;115817;1192;60151;-77
2021/10/29 05:33:21;;;;;;;15.60;7.00;;;;;;;5.71;97.64;100533.62;115878;1192;60411;-78
2021/10/29 05:35:48;;;;;;;14.80;6.60;;;;;;;5.77;97.86;100537.91;115530;1192;60217;-78
2021/10/29 05:38:14;;;;;;;27.80;11.10;;;;;;;5.80;97.82;100538.79;115867;1191;69697;-78
2021/10/29 05:40:41;;;;;;;19.60;10.30;;;;;;;5.84;97.39;100536.66;115736;1192;59800;-78
2021/10/29 05:43:07;;;;;;;23.20;11.50;;;;;;;5.88;97.41;100539.57;115098;1192;62790;-78
2021/10/29 05:45:34;;;;;;;21.30;9.40;;;;;;;5.92;97.69;100534.67;115475;1192;60384;-79
2021/10/29 05:48:04;;;;;;;20.70;9.20;;;;;;;5.94;97.67;100535.70;115558;1192;76509;-78
2021/10/29 05:50:31;;;;;;;19.70;7.40;;;;;;;5.96;97.66;100534.35;115689;1191;71195;-78
2021/10/29 05:53:00;;;;;;;24.00;10.20;;;;;;;5.96;97.67;100537.27;115720;1192;72574;-78
2021/10/29 05:55:27;;;;;;;24.70;10.50;;;;;;;5.97;97.18;100537.89;115751;1192;62133;-78
2021/10/29 05:57:54;;;;;;;21.50;10.90;;;;;;;5.98;97.21;100545.69;115741;1192;60928;-77
2021/10/29 06:00:24;;;;;;;23.00;11.60;;;;;;;5.99;96.98;100543.85;115748;1192;75392;-78
2021/10/29 06:02:51;;;;;;;28.80;12.00;;;;;;;6.00;97.09;100547.05;115638;1192;71672;-78
2021/10/29 06:05:18;;;;;;;22.70;11.20;;;;;;;6.01;96.98;100556.08;115607;1192;73591;-78
2021/10/29 06:07:45;;;;;;;24.50;10.90;;;;;;;6.03;97.21;100556.95;115801;1192;61750;-78
2021/10/29 06:10:14;;;;;;;19.30;9.70;;;;;;;6.04;97.29;100565.94;115773;1192;61004;-78
2021/10/29 06:12:43;;;;;;;19.70;10.00;;;;;;;6.04;97.45;100569.32;115656;1192;76079;-78
2021/10/29 06:15:13;;;;;;;27.70;12.50;;;;;;;6.05;97.29;100568.90;115485;1192;71075;-79
2021/10/29 06:17:40;;;;;;;24.00;11.10;;;;;;;6.08;97.32;100571.76;115242;1191;71529;-78
2021/10/29 06:20:08;;;;;;;26.00;12.30;;;;;;;6.10;97.23;100570.53;115710;1192;61898;-78
2021/10/29 06:22:38;;;;;;;18.30;8.70;;;;;;;6.11;96.91;100567.61;115894;1192;61251;-74
2021/10/29 06:25:19;;;;;;;27.50;11.20;;;;;;;6.14;97.08;100569.42;115872;1192;75423;-75
2021/10/29 06:30:36;;;;;;;20.90;9.30;;;;;;;6.17;96.44;100563.89;115588;1192;72757;-74
2021/10/29 06:33:03;;;;;;;19.50;9.30;;;;;;;6.16;96.16;100565.79;115797;1191;60194;-74
2021/10/29 06:35:30;;;;;;;21.90;9.60;;;;;;;6.15;96.40;100563.60;115869;1191;60079;-74
2021/10/29 06:37:58;;;;;;;21.10;9.50;;;;;;;6.16;96.53;100562.92;115789;1192;76537;-75
2021/10/29 06:40:27;;;;;;;20.90;9.30;;;;;;;6.18;96.18;100563.08;115801;1192;71014;-76
2021/10/29 06:42:57;;;;;;;18.20;6.80;;;;;;;6.20;96.57;100560.27;115627;1191;72694;-72
2021/10/29 06:45:43;;;;;;;19.70;9.30;;;;;;;6.23;96.57;100568.16;115160;1193;62322;-72
2021/10/29 07:40:04;;;;;;;21.50;9.60;;;;;;;7.66;92.76;100569.51;115726;1191;61690;-75
2021/10/29 07:42:55;;;;;;;16.30;8.30;;;;;;;7.75;92.31;100564.86;115734;1192;60205;-74
2021/10/29 07:45:24;;;;;;;17.20;8.20;;;;;;;7.87;92.10;100566.67;115227;1192;76251;-72
2021/10/29 07:47:52;;;;;;;17.40;8.50;;;;;;;7.97;91.73;100565.56;115565;1192;71231;-73
2021/10/29 07:50:20;;;;;;;10.00;5.50;;;;;;;8.07;91.38;100566.30;115639;1192;72518;-73
2021/10/29 07:52:49;;;;;;;17.20;8.60;;;;;;;8.16;91.00;100565.80;115693;1192;62795;-73
2021/10/29 07:55:18;;;;;;;17.00;7.70;;;;;;;8.29;91.03;100568.39;115770;1192;61348;-73
2021/10/29 07:57:46;;;;;;;17.20;8.60;;;;;;;8.40;90.40;100562.87;115767;1192;75405;-73
2021/10/29 08:00:16;;;;;;;15.90;8.20;;;;;;;8.48;90.14;100560.17;115751;1192;71237;-74
2021/10/29 08:02:47;;;;;;;19.70;8.60;;;;;;;8.59;90.04;100562.44;115761;1192;73702;-73
2021/10/29 08:05:14;;;;;;;19.10;9.10;;;;;;;8.69;89.55;100564.64;115483;1192;62907;-73
2021/10/29 08:07:41;;;;;;;11.00;5.40;;;;;;;8.80;89.37;100563.85;114988;1192;61841;-72
2021/10/29 08:10:10;;;;;;;16.70;8.40;;;;;;;8.89;88.87;100568.86;115611;1192;76411;-73
2021/10/29 08:12:39;;;;;;;17.80;9.10;;;;;;;8.97;88.83;100571.06;115946;1191;71060;-73
2021/10/29 08:15:07;;;;;;;14.50;9.10;;;;;;;9.07;88.91;100565.66;115766;1192;73747;-73
2021/10/29 08:17:35;;;;;;;19.60;9.90;;;;;;;9.15;88.45;100556.25;115724;1192;61560;-73
2021/10/29 08:20:08;;;;;;;12.00;6.90;;;;;;;9.24;87.41;100557.21;115769;1192;59940;-73
2021/10/29 08:22:37;;;;;;;17.90;9.00;;;;;;;9.33;87.23;100561.14;115667;1192;74515;-73
2021/10/29 08:25:05;;;;;;;15.60;8.00;;;;;;;9.44;87.29;100554.02;115180;1192;70672;-72
2021/10/29 08:27:32;;;;;;;15.30;8.30;;;;;;;9.54;87.14;100553.61;115669;1191;72911;-73
2021/10/29 08:29:58;;;;;;;12.00;7.40;;;;;;;9.65;86.38;100556.91;115699;1192;60504;-73
2021/10/29 08:32:25;;;;;;;14.80;8.40;;;;;;;9.72;85.74;100561.43;115676;1192;60601;-73
2021/10/29 08:34:52;;;;;;;13.40;7.40;;;;;;;9.80;85.93;100554.75;115608;1192;76455;-73
2021/10/29 08:37:19;;;;;;;12.30;7.30;;;;;;;9.90;85.77;100547.92;115664;1192;71044;-73
2021/10/29 08:39:45;;;;;;;17.00;8.20;;;;;;;10.00;85.47;100542.39;115398;1191;72225;-73
2021/10/29 08:42:12;;;;;;;15.40;9.00;;;;;;;10.12;85.35;100539.45;115184;1192;61731;-72
2021/10/29 08:44:39;;;;;;;13.60;7.30;;;;;;;10.27;84.88;100538.83;114888;1184;60616;-73
2021/10/29 08:47:06;;;;;;;16.00;8.50;;;;;;;10.41;84.74;100538.64;115727;1191;75345;-73
2021/10/29 08:49:34;;;;;;;11.30;5.20;;;;;;;10.56;83.93;100532.63;115650;1192;72148;-74
2021/10/29 08:52:06;;;;;;;12.50;6.30;;;;;;;10.67;82.91;100533.44;115662;1192;73681;-73
2021/10/29 08:54:33;;;;;;;10.70;5.30;;;;;;;10.77;82.37;100532.49;115687;1192;60388;-73
2021/10/29 08:57:00;;;;;;;11.80;6.20;;;;;;;10.86;81.38;100532.81;115747;1192;59909;-73
2021/10/29 09:02:11;;;;;;;15.90;7.70;;;;;;;11.13;80.31;100531.04;115301;1192;72166;-73
2021/10/29 09:04:45;;;;;;;12.10;6.80;;;;;;;11.31;80.03;100523.08;115352;1192;72542;-73
2021/10/29 09:16:14;;;;;;;13.20;7.10;;;;;;;11.75;78.34;100516.92;115597;1192;76682;-73
2021/10/29 09:32:44;;;;;;;8.70;4.80;;;;;;;12.79;74.72;100497.27;115764;1191;72591;-73
2021/10/29 09:35:16;;;;;;;10.70;5.60;;;;;;;12.88;73.75;100496.32;115704;1191;60403;-73
2021/10/29 09:37:54;;;;;;;7.80;4.50;;;;;;;13.00;74.25;100501.72;115582;1192;59905;-73
2021/10/29 09:40:23;;;;;;;9.00;5.30;;;;;;;13.09;71.56;100499.16;115424;1192;75545;-73
2021/10/29 09:42:53;;;;;;;12.60;5.60;;;;;;;13.16;72.01;100498.81;115473;1192;71008;-73
2021/10/29 09:45:27;;;;;;;9.60;4.70;;;;;;;13.27;72.67;100494.63;115660;1192;72769;-73
2021/10/29 09:48:10;;;;;;;8.90;4.30;;;;;;;13.39;71.96;100493.40;115710;1191;61116;-73
2021/10/29 09:50:47;;;;;;;7.50;4.80;;;;;;;13.52;71.03;100493.94;115762;1192;60284;-73
2021/10/29 09:53:34;;;;;;;7.30;4.50;;;;;;;13.63;71.09;100484.82;115738;1191;75461;-73
2021/10/29 09:56:15;;;;;;;6.10;3.60;;;;;;;13.72;69.32;100481.98;115774;1192;71344;-73
2021/10/29 09:58:43;;;;;;;7.40;4.60;;;;;;;13.81;69.26;100478.16;115576;1191;73692;-73
2021/10/29 10:01:11;;;;;;;8.50;4.40;;;;;;;13.90;68.00;100477.16;115440;1192;59810;-73
2021/10/29 10:03:39;;;;;;;10.70;3.90;;;;;;;14.02;68.33;100469.38;115622;1191;60994;-73
2021/10/29 10:06:07;;;;;;;7.50;3.60;;;;;;;14.15;68.06;100472.80;115886;1192;76182;-74
2021/10/29 10:08:35;;;;;;;8.40;3.90;;;;;;;14.26;66.42;100475.27;115783;1191;72103;-73
2021/10/29 10:11:02;;;;;;;9.20;4.40;;;;;;;14.32;65.34;100474.09;115763;1192;73562;-73
2021/10/29 10:13:32;;;;;;;5.00;2.60;;;;;;;14.37;65.04;100468.42;115713;1192;61308;-73
2021/10/29 10:16:02;;;;;;;8.70;4.00;;;;;;;14.43;64.52;100465.55;115884;1191;59971;-74
2021/10/29 10:18:29;;;;;;;5.50;3.50;;;;;;;14.50;64.43;100465.13;115740;1192;75558;-74
2021/10/29 10:20:58;;;;;;;6.00;3.00;;;;;;;14.59;64.48;100468.42;115430;1192;71822;-73
2021/10/29 10:23:36;;;;;;;6.10;3.20;;;;;;;14.66;63.76;100466.55;115746;1191;73589;-73
2021/10/29 10:29:23;;;;;;;6.70;3.60;;;;;;;14.79;62.72;100457.33;115767;1192;60832;-75
2021/10/29 10:46:13;;;;;;;7.00;3.60;;;;;;;15.22;59.81;100448.11;115740;1192;75912;-74
2021/10/29 10:48:47;;;;;;;5.00;2.60;;;;;;;15.24;59.28;100448.48;115817;1192;70755;-74
2021/10/29 10:51:32;;;;;;;3.80;2.40;;;;;;;15.31;60.08;100446.15;115756;1192;73603;-73
2021/10/29 10:54:04;;;;;;;5.20;2.70;;;;;;;15.31;58.59;100440.97;115706;1192;60313;-73
2021/10/29 11:02:40;;;;;;;8.00;3.40;;;;;;;15.53;59.07;100430.45;115105;1192;71944;-73
2021/10/29 11:05:17;;;;;;;5.10;2.80;;;;;;;15.72;58.52;100421.59;115703;1192;73643;-73
2021/10/29 11:10:20;;;;;;;6.40;2.40;;;;;;;15.99;56.85;100418.50;115793;1192;61335;-73
2021/10/29 11:12:47;;;;;;;6.90;2.90;;;;;;;16.11;57.14;100415.86;115842;1192;76408;-74
2021/10/29 11:15:16;;;;;;;4.40;2.70;;;;;;;16.28;55.71;100417.20;115743;1192;70999;-74
2021/10/29 11:17:56;;;;;;;4.20;2.60;;;;;;;16.47;55.10;100417.40;115827;1191;72671;-74
2021/10/29 11:20:39;;;;;;;10.10;2.80;;;;;;;16.64;55.18;100422.58;115639;1192;60983;-74
2021/10/29 11:23:27;;;;;;;7.00;2.70;;;;;;;16.74;54.10;100421.34;115293;1192;61220;-73
2021/10/29 11:26:06;;;;;;;5.30;2.60;;;;;;;16.80;53.73;100412.84;115677;1192;76717;-74
2021/10/29 11:28:42;;;;;;;6.60;3.10;;;;;;;16.87;54.10;100407.79;115734;1191;72078;-73
2021/10/29 11:31:16;;;;;;;5.70;3.20;;;;;;;16.99;53.20;100404.90;115712;1192;73567;-73
2021/10/29 11:33:48;;;;;;;4.70;3.00;;;;;;;17.04;52.91;100409.61;115817;1192;60322;-73
2021/10/29 11:36:18;;;;;;;4.60;2.70;;;;;;;17.12;52.69;100406.88;115617;1186;60963;-74
2021/10/29 11:38:47;;;;;;;5.60;3.10;;;;;;;17.20;52.08;100404.67;115783;1192;75782;-74
2021/10/29 11:41:18;;;;;;;3.90;2.40;;;;;;;17.35;51.31;100399.40;115291;1192;72038;-73
2021/10/29 11:43:44;;;;;;;3.20;2.30;;;;;;;17.63;50.75;100398.52;115459;1192;75111;-74
2021/10/29 11:46:13;;;;;;;4.30;2.50;;;;;;;18.17;49.65;100400.48;115105;1192;61782;-73
2021/10/29 11:48:52;;;;;;;4.50;2.40;;;;;;;18.76;48.57;100396.70;115902;1191;61402;-73
2021/10/29 11:51:21;;;;;;;4.80;2.40;;;;;;;19.16;46.98;100391.30;115814;1192;76188;-73
2021/10/29 11:54:15;;;;;;;7.40;3.00;;;;;;;19.35;47.30;100393.77;115539;1192;71953;-73
2021/10/29 12:07:22;;;;;;;3.20;1.80;;;;;;;18.89;47.65;100390.39;115507;1192;71179;-73
2021/10/29 12:09:56;;;;;;;6.30;2.90;;;;;;;18.74;47.27;100390.28;115610;1192;72392;-73
2021/10/29 12:12:28;;;;;;;6.40;2.70;;;;;;;18.71;47.36;100378.86;115784;1192;60277;-73
2021/10/29 12:15:14;;;;;;;3.90;2.00;;;;;;;19.02;47.21;100374.61;115886;1192;61255;-73
2021/10/29 12:17:56;;;;;;;5.80;2.80;;;;;;;19.41;46.61;100369.35;115819;1192;75481;-73
2021/10/29 12:20:31;;;;;;;3.50;2.30;;;;;;;20.20;45.30;100361.30;115815;1192;72384;-73
2021/10/29 12:23:06;;;;;;;4.90;2.40;;;;;;;21.16;42.97;100355.10;115812;1192;73528;-73
2021/10/29 12:28:12;;;;;;;4.80;2.30;;;;;;;22.27;40.03;100351.59;114386;1192;60133;-72
2021/10/29 12:30:50;;;;;;;5.30;3.10;;;;;;;22.34;38.78;100352.92;115618;1191;76679;-73
2021/10/29 13:01:35;;;;;;;4.70;2.20;;;;;;;21.77;40.31;100311.91;115696;1192;70935;-74
2021/10/29 13:04:04;;;;;;;4.60;1.90;;;;;;;21.45;40.56;100306.61;115602;1192;72632;-74
2021/10/29 13:06:46;;;;;;;3.90;2.40;;;;;;;20.99;41.65;100310.58;115200;1192;61770;-74
2021/10/29 13:09:22;;;;;;;3.30;1.90;;;;;;;20.87;42.14;100304.03;115843;1192;61345;-74
2021/10/29 13:12:05;;;;;;;3.70;2.20;;;;;;;20.97;42.59;100297.79;115874;1192;75542;-74
2021/10/29 13:17:03;;;;;;;4.30;2.10;;;;;;;21.45;42.53;100288.98;115898;1192;72740;-74
2021/10/29 13:19:45;;;;;;;3.40;2.30;;;;;;;21.69;41.56;100285.49;115877;1192;61472;-74
2021/10/29 13:22:54;;;;;;;4.10;2.40;;;;;;;21.83;40.56;100282.63;115716;1192;62250;-74
2021/10/29 13:25:51;;;;;;;4.10;2.60;;;;;;;22.01;40.73;100277.17;115877;1192;76460;-74
2021/10/29 13:36:30;;;;;;;4.70;2.40;;;;;;;21.89;39.90;100262.04;115899;1192;59703;-74
2021/10/29 14:01:05;;;;;;;4.60;2.10;;;;;;;19.15;46.26;100244.68;115627;1191;60072;-74
2021/10/29 14:04:06;;;;;;;4.30;2.20;;;;;;;18.82;47.17;100242.92;115863;1191;60373;-73
2021/10/29 14:28:44;;;;;;;6.30;2.40;;;;;;;16.68;53.27;100232.55;115875;1192;61367;-74
2021/10/29 14:39:39;;;;;;;6.70;2.50;;;;;;;16.51;54.31;100235.23;115425;1192;72813;-74
2021/10/29 14:47:37;;;;;;;6.60;2.40;;;;;;;16.28;55.42;100232.97;115867;1192;75361;-74
2021/10/29 15:06:24;;;;;;;6.90;3.20;;;;;;;15.62;57.81;100217.02;115805;1192;72820;-74
2021/10/29 15:17:22;;;;;;;4.50;2.40;;;;;;;15.05;59.42;100188.55;115662;1192;72286;-74
2021/10/29 15:46:40;;;;;;;4.60;2.60;;;;;;;13.79;63.87;100170.67;115692;1192;73677;-73
2021/10/29 15:51:51;;;;;;;5.10;2.60;;;;;;;13.60;64.88;100174.47;115771;1192;60403;-73
2021/10/29 15:54:18;;;;;;;5.10;2.20;;;;;;;13.49;65.30;100173.70;115754;1192;76553;-73
2021/10/29 15:56:58;;;;;;;4.40;2.50;;;;;;;13.41;65.38;100171.30;114984;1192;71971;-73
2021/10/29 15:59:41;;;;;;;5.70;3.10;;;;;;;13.33;65.82;100165.48;115578;1192;73055;-74
2021/10/29 16:18:43;;;;;;;3.50;1.90;;;;;;;12.99;67.20;100165.69;115703;1192;61755;-73